TimeEDT,TemperatureF,Dew PointF,Humidity,Sea Level PressureIn,VisibilityMPH,Wind Direction,Wind SpeedMPH,Gust SpeedMPH,PrecipitationIn,Events,Conditions,WindDirDegrees,DateUTC
12:11 AM,43.0,42.1,97,29.85,3.0,ESE,10.4,-,0.00,,Overcast,110,2014-04-04 04:11:00
12:56 AM,44.1,42.1,93,29.83,2.5,East,10.4,-,0.03,Rain,Light Rain,100,2014-04-04 04:56:00
1:09 AM,44.1,42.1,93,29.82,3.0,ESE,8.1,-,0.00,,Overcast,110,2014-04-04 05:09:00
1:56 AM,45.0,43.0,93,29.81,7.0,ESE,13.8,21.9,0.00,,Overcast,120,2014-04-04 05:56:00
2:06 AM,45.0,43.0,93,29.80,7.0,ESE,12.7,-,N/A,,Overcast,120,2014-04-04 06:06:00
2:53 AM,44.6,42.8,93,29.80,2.0,ESE,11.5,-,0.00,Rain,Light Rain,120,2014-04-04 06:53:00
2:56 AM,45.0,43.0,93,29.81,2.0,ESE,11.5,-,0.01,Rain,Light Rain,120,2014-04-04 06:56:00
3:12 AM,45.0,43.0,93,29.81,3.0,ESE,11.5,-,0.00,,Overcast,120,2014-04-04 07:12:00
3:21 AM,45.0,43.0,93,29.81,2.0,ESE,9.2,-,0.01,,Overcast,120,2014-04-04 07:21:00
3:45 AM,45.0,43.0,93,29.80,1.8,ESE,9.2,-,0.01,,Overcast,120,2014-04-04 07:45:00
3:52 AM,44.6,42.8,93,29.79,2.0,SE,9.2,-,0.01,,Overcast,130,2014-04-04 07:52:00
3:56 AM,44.1,43.0,96,29.79,2.0,ESE,10.4,16.1,0.01,,Overcast,120,2014-04-04 07:56:00
4:56 AM,45.0,43.0,93,29.80,2.5,SE,11.5,-,0.01,Rain,Light Rain,130,2014-04-04 08:56:00
5:08 AM,45.0,43.0,93,29.79,3.0,SE,11.5,-,0.01,,Overcast,130,2014-04-04 09:08:00
5:56 AM,45.0,43.0,93,29.81,4.0,ESE,12.7,-,0.01,,Overcast,120,2014-04-04 09:56:00
6:20 AM,45.0,43.0,93,29.78,6.0,ESE,11.5,-,N/A,,Overcast,120,2014-04-04 10:20:00
6:49 AM,45.0,43.0,93,29.79,7.0,SE,13.8,-,N/A,,Overcast,130,2014-04-04 10:49:00
6:56 AM,45.0,43.0,93,29.81,6.0,SE,11.5,-,N/A,,Overcast,130,2014-04-04 10:56:00
7:56 AM,46.0,43.0,89,29.79,3.0,SE,16.1,24.2,N/A,,Overcast,130,2014-04-04 11:56:00
8:12 AM,46.0,44.1,93,29.76,2.5,SE,13.8,-,N/A,,Overcast,130,2014-04-04 12:12:00
8:51 AM,46.4,44.6,93,29.77,1.5,SE,18.4,-,N/A,,Overcast,130,2014-04-04 12:51:00
8:56 AM,46.0,44.1,93,29.78,1.5,SE,16.1,23.0,N/A,,Overcast,140,2014-04-04 12:56:00
9:28 AM,46.0,44.1,93,29.76,2.0,SE,15.0,21.9,N/A,,Overcast,130,2014-04-04 13:28:00
9:56 AM,46.0,44.1,93,29.77,2.0,SE,16.1,26.5,N/A,,Overcast,140,2014-04-04 13:56:00
10:14 AM,46.0,43.0,89,29.74,1.8,ESE,16.1,25.3,0.02,Rain,Light Rain,120,2014-04-04 14:14:00
10:31 AM,46.0,44.1,93,29.74,2.0,SE,12.7,-,0.03,Rain,Light Rain,130,2014-04-04 14:31:00
10:45 AM,46.0,44.1,93,29.72,1.8,ESE,16.1,21.9,0.04,,Overcast,110,2014-04-04 14:45:00
10:56 AM,45.0,43.0,93,29.74,2.0,SE,17.3,21.9,0.04,,Overcast,130,2014-04-04 14:56:00
11:49 AM,45.0,42.1,90,29.68,3.0,SE,19.6,27.6,N/A,,Overcast,130,2014-04-04 15:49:00
11:56 AM,45.0,42.1,90,29.70,3.0,SE,16.1,26.5,N/A,,Overcast,130,2014-04-04 15:56:00
12:56 PM,45.0,41.0,86,29.66,6.0,SE,17.3,31.1,N/A,,Overcast,130,2014-04-04 16:56:00
1:54 PM,44.6,42.8,93,29.63,2.0,SE,17.3,29.9,0.03,Rain,Light Rain,140,2014-04-04 17:54:00
1:56 PM,45.0,42.1,90,29.65,2.0,SE,17.3,25.3,0.03,Rain,Light Rain,140,2014-04-04 17:56:00
2:11 PM,44.1,42.1,93,29.62,1.8,SE,17.3,24.2,0.04,Rain,Light Rain,140,2014-04-04 18:11:00
2:27 PM,45.0,42.1,90,29.59,2.0,SE,19.6,32.2,0.07,Rain,Light Rain,130,2014-04-04 18:27:00
2:40 PM,45.0,42.1,90,29.59,5.0,SE,19.6,28.8,0.08,Rain,Light Rain,130,2014-04-04 18:40:00
2:56 PM,45.0,42.1,90,29.60,4.0,SE,19.6,27.6,0.08,,Overcast,130,2014-04-04 18:56:00
3:13 PM,45.0,42.1,90,29.58,1.8,SE,15.0,27.6,0.03,Rain,Light Rain,140,2014-04-04 19:13:00
3:23 PM,45.0,42.1,90,29.58,2.5,SE,20.7,31.1,0.04,Rain,Light Rain,140,2014-04-04 19:23:00
3:30 PM,45.0,43.0,93,29.58,3.0,SSE,15.0,31.1,0.04,Rain,Light Rain,150,2014-04-04 19:30:00
4:56 PM,46.9,44.1,90,29.59,10.0,SE,15.0,-,0.00,,Overcast,130,2014-04-04 20:56:00
5:48 PM,48.0,45.0,89,29.57,10.0,SE,10.4,17.3,N/A,,Overcast,130,2014-04-04 21:48:00
5:56 PM,48.0,45.0,89,29.57,9.0,SE,9.2,-,N/A,,Overcast,130,2014-04-04 21:56:00
6:37 PM,48.0,46.0,93,29.56,7.0,SE,11.5,23.0,N/A,,Overcast,140,2014-04-04 22:37:00
6:45 PM,48.0,46.0,93,29.56,7.0,SE,12.7,19.6,N/A,,Overcast,140,2014-04-04 22:45:00
6:52 PM,48.2,44.6,87,29.55,7.0,SE,11.5,20.7,N/A,,Overcast,140,2014-04-04 22:52:00
6:56 PM,48.0,46.0,93,29.57,7.0,SE,13.8,20.7,N/A,,Overcast,140,2014-04-04 22:56:00
7:19 PM,48.0,46.0,93,29.56,6.0,SSE,10.4,21.9,N/A,,Overcast,160,2014-04-04 23:19:00
7:53 PM,48.2,46.4,93,29.62,6.0,West,13.8,25.3,0.00,Rain,Light Rain,260,2014-04-04 23:53:00
7:56 PM,48.9,46.9,93,29.62,5.0,Variable,6.9,24.2,0.01,Rain,Light Rain,0,2014-04-04 23:56:00
8:08 PM,48.9,46.9,93,29.61,5.0,Calm,Calm,-,0.01,Rain,Light Rain,0,2014-04-05 00:08:00
8:56 PM,50.0,48.0,93,29.64,10.0,SW,5.8,-,0.01,,Overcast,220,2014-04-05 00:56:00
9:07 PM,51.1,48.0,89,29.63,10.0,SW,4.6,-,N/A,,Mostly Cloudy,230,2014-04-05 01:07:00
9:22 PM,51.1,48.9,92,29.63,10.0,SW,4.6,-,N/A,,Mostly Cloudy,230,2014-04-05 01:22:00
9:56 PM,51.1,46.0,83,29.67,10.0,West,16.1,29.9,N/A,,Overcast,260,2014-04-05 01:56:00
10:36 PM,46.9,39.0,74,29.69,-9999.0,North,-9999.0,-,N/A,,Unknown,0,2014-04-05 02:36:00
10:56 PM,46.0,39.0,76,29.71,10.0,West,18.4,25.3,N/A,,Unknown,270,2014-04-05 02:56:00
11:56 PM,43.0,34.0,71,29.74,10.0,WSW,17.3,25.3,N/A,,Overcast,250,2014-04-05 03:56:00